Truthville, New York
Current Conditions -  °F | °C
As of 3:53 PM on Sunday 23 Nov 2014 (Local Time) from KGFL Reporting Station
Overcast Overcast  
Wind Chill: 51°   Ceiling: 10000
Heat Index: 51°   Visibility: 10mi
Dew Point: 35°   Wind: 0mph
Humidity: 54%   Direction: NA
Pressure: 30.07"   Gusts: NA
Location:  43.3389°N, 73.3194°W
Report Text: KGFL 232053Z AUTO 00000KT 10SM OVC100 11/02 A3007 RMK AO2 SLP186 T01060017 58005
Loading
Personal Weather Stations






























Interactive Weather Map New forecast layout! Learn more

10-Day Weather Forecast

Advertisements
Track Severe Weather on mobile